createdAt,value
2022-12-18T00:01:41.557Z,78.77
2022-12-18T00:04:16.533Z,78.70
2022-12-18T00:06:43.584Z,79.42
2022-12-18T00:09:11.652Z,79.11
2022-12-18T00:11:38.618Z,80.52
2022-12-18T00:14:05.606Z,79.55
2022-12-18T00:16:32.681Z,80.39
2022-12-18T00:19:00.594Z,79.55
2022-12-18T00:21:29.769Z,79.98
2022-12-18T00:23:57.457Z,80.34
2022-12-18T00:26:33.160Z,80.67
2022-12-18T00:29:13.242Z,79.63
2022-12-18T00:31:41.117Z,79.65
2022-12-18T00:34:10.565Z,80.22
2022-12-18T00:36:41.014Z,80.10
2022-12-18T00:39:07.905Z,79.77
2022-12-18T00:41:35.220Z,80.41
2022-12-18T00:44:02.570Z,80.27
2022-12-18T00:46:29.456Z,80.28
2022-12-18T00:48:56.400Z,81.10
2022-12-18T00:51:23.622Z,80.90
2022-12-18T00:53:50.471Z,81.30
2022-12-18T00:56:17.481Z,81.11
2022-12-18T00:58:44.410Z,80.80
2022-12-18T01:01:11.340Z,81.50
2022-12-18T01:03:38.531Z,80.75
2022-12-18T01:06:11.358Z,81.06
2022-12-18T01:08:38.752Z,80.33
2022-12-18T01:11:17.846Z,81.00
2022-12-18T01:13:45.035Z,80.05
2022-12-18T01:16:16.388Z,79.65
2022-12-18T01:18:43.469Z,80.31
2022-12-18T01:21:13.687Z,80.73
2022-12-18T01:23:40.988Z,80.97
2022-12-18T01:26:10.211Z,80.74
2022-12-18T01:28:37.685Z,79.66
2022-12-18T01:31:19.106Z,80.16
2022-12-18T01:33:51.757Z,81.50
2022-12-18T01:36:23.136Z,81.19
2022-12-18T01:38:50.731Z,80.87
2022-12-18T01:41:21.910Z,80.76
2022-12-18T01:43:57.303Z,82.20
2022-12-18T01:46:26.163Z,81.31
2022-12-18T01:49:02.160Z,81.20
2022-12-18T01:51:31.520Z,81.63
2022-12-18T01:54:00.359Z,81.38
2022-12-18T01:56:27.842Z,81.47
2022-12-18T01:59:01.170Z,81.84
2022-12-18T02:01:31.196Z,81.13
2022-12-18T02:04:23.802Z,80.96
2022-12-18T02:07:01.240Z,81.15
2022-12-18T02:09:44.852Z,80.28
2022-12-18T02:12:17.766Z,80.76
2022-12-18T02:15:07.847Z,80.53
2022-12-18T02:17:59.174Z,81.16
2022-12-18T02:20:37.445Z,81.31
2022-12-18T02:23:23.455Z,80.88
2022-12-18T02:26:08.881Z,80.89
2022-12-18T02:28:42.559Z,81.55
2022-12-18T02:31:15.180Z,81.69
2022-12-18T02:33:45.337Z,81.36
2022-12-18T02:36:14.749Z,81.92
2022-12-18T02:38:45.019Z,81.74
2022-12-18T02:41:17.640Z,82.00
2022-12-18T02:43:54.688Z,80.67
2022-12-18T02:46:31.667Z,81.37
2022-12-18T02:49:15.694Z,81.42
2022-12-18T02:51:54.516Z,81.20
2022-12-18T02:54:37.122Z,80.97
2022-12-18T02:57:17.347Z,81.60
2022-12-18T03:00:02.932Z,81.52
2022-12-18T03:02:46.823Z,81.37
2022-12-18T03:05:20.748Z,81.13
2022-12-18T03:08:02.122Z,81.64
2022-12-18T03:10:36.321Z,81.36
2022-12-18T03:13:09.953Z,81.55
2022-12-18T03:15:42.832Z,81.95
2022-12-18T03:18:26.496Z,81.41
2022-12-18T03:20:57.019Z,81.47
2022-12-18T03:23:28.947Z,80.96
2022-12-18T03:26:05.825Z,80.94
2022-12-18T03:28:42.638Z,80.74
2022-12-18T03:31:12.072Z,81.28
2022-12-18T03:33:42.147Z,80.38
2022-12-18T03:36:09.743Z,80.73
2022-12-18T03:38:36.867Z,80.39
2022-12-18T03:41:31.440Z,80.86
2022-12-18T03:44:37.983Z,80.60
2022-12-18T03:47:37.179Z,80.77
2022-12-18T03:50:14.055Z,81.19
2022-12-18T03:52:48.846Z,80.60
2022-12-18T03:55:18.118Z,80.77
2022-12-18T03:57:49.403Z,80.35
2022-12-18T04:00:19.244Z,80.85
2022-12-18T04:03:02.985Z,80.47
2022-12-18T04:05:38.531Z,80.60
2022-12-18T04:08:07.333Z,81.01
2022-12-18T04:10:38.414Z,82.04
2022-12-18T04:13:05.387Z,81.92
2022-12-18T04:15:35.896Z,81.70
2022-12-18T04:18:04.373Z,81.51
2022-12-18T04:20:38.454Z,81.20
2022-12-18T04:23:05.589Z,81.63
2022-12-18T04:25:33.199Z,81.46
2022-12-18T04:28:09.640Z,81.83
2022-12-18T04:30:38.804Z,80.79
2022-12-18T04:33:13.874Z,81.35
2022-12-18T04:35:41.482Z,81.51
2022-12-18T04:38:09.864Z,80.70
2022-12-18T04:40:37.862Z,81.04
2022-12-18T04:43:11.759Z,80.82
2022-12-18T04:45:38.961Z,81.36
2022-12-18T04:48:07.697Z,80.24
2022-12-18T04:50:34.656Z,79.84
2022-12-18T04:53:01.577Z,79.96
2022-12-18T04:55:29.161Z,80.64
2022-12-18T04:57:56.119Z,80.29
2022-12-18T05:00:23.997Z,80.33
2022-12-18T05:02:50.879Z,79.87
2022-12-18T05:05:18.088Z,79.84
2022-12-18T05:07:45.055Z,80.20
2022-12-18T05:10:12.941Z,80.23
2022-12-18T05:12:39.745Z,80.15
2022-12-18T05:15:07.544Z,79.47
2022-12-18T05:17:34.353Z,80.43
2022-12-18T05:20:01.233Z,80.54
2022-12-18T05:22:28.100Z,80.21
2022-12-18T05:24:55.027Z,80.48
2022-12-18T05:27:21.909Z,80.06
2022-12-18T05:29:48.805Z,79.68
2022-12-18T05:32:15.625Z,80.27
2022-12-18T05:34:42.591Z,79.79
2022-12-18T05:37:09.440Z,80.31
2022-12-18T05:39:36.462Z,80.30
2022-12-18T05:42:03.337Z,80.09
2022-12-18T05:44:30.388Z,79.89
2022-12-18T05:46:57.280Z,79.91
2022-12-18T05:49:24.215Z,79.62
2022-12-18T05:51:51.085Z,80.13
2022-12-18T05:54:18.039Z,79.54
2022-12-18T05:56:48.619Z,79.22
2022-12-18T05:59:15.821Z,79.43
2022-12-18T06:01:42.792Z,80.03
2022-12-18T06:04:09.940Z,80.58
2022-12-18T06:06:36.992Z,80.92
2022-12-18T06:09:05.293Z,81.40
2022-12-18T06:11:32.392Z,81.04
2022-12-18T06:13:59.611Z,80.35
2022-12-18T06:16:29.149Z,80.67
2022-12-18T06:19:00.869Z,79.95
2022-12-18T06:21:30.344Z,79.86
2022-12-18T06:23:58.236Z,79.67
2022-12-18T06:26:28.401Z,79.04
2022-12-18T06:28:55.713Z,78.56
2022-12-18T06:31:22.980Z,77.28
2022-12-18T06:33:50.110Z,76.88
2022-12-18T06:36:17.063Z,76.50
2022-12-18T06:38:44.903Z,76.14
2022-12-18T06:41:17.690Z,75.40
2022-12-18T06:43:45.491Z,74.68
2022-12-18T06:46:13.344Z,73.80
2022-12-18T06:48:40.332Z,72.98
2022-12-18T06:51:07.532Z,73.17
2022-12-18T06:53:34.883Z,72.65
2022-12-18T06:56:10.141Z,72.85
2022-12-18T06:58:38.010Z,72.69
2022-12-18T07:01:08.840Z,72.65
2022-12-18T07:03:35.938Z,72.93
2022-12-18T07:06:03.328Z,72.51
2022-12-18T07:08:31.978Z,72.53
2022-12-18T07:10:59.197Z,72.58
2022-12-18T07:13:26.153Z,72.30
2022-12-18T07:15:53.177Z,72.42
2022-12-18T07:18:20.189Z,71.47
2022-12-18T07:20:47.181Z,71.56
2022-12-18T07:23:15.027Z,71.61
2022-12-18T07:25:41.868Z,71.85
2022-12-18T07:28:11.682Z,71.55
2022-12-18T07:30:42.640Z,71.90
2022-12-18T07:33:09.516Z,71.93
2022-12-18T07:35:36.431Z,71.66
2022-12-18T07:38:03.307Z,71.79
2022-12-18T07:40:30.182Z,71.53
2022-12-18T07:42:57.023Z,71.65
2022-12-18T07:45:23.971Z,71.10
2022-12-18T07:47:51.048Z,70.90
2022-12-18T07:50:17.974Z,70.98
2022-12-18T07:52:44.872Z,70.87
2022-12-18T07:55:11.793Z,70.40
2022-12-18T07:57:59.226Z,70.45
2022-12-18T08:00:25.572Z,71.02
2022-12-18T08:02:52.543Z,71.31
2022-12-18T08:05:19.569Z,71.01
2022-12-18T08:07:46.481Z,71.04
2022-12-18T08:10:14.377Z,70.05
2022-12-18T08:12:41.248Z,70.28
2022-12-18T08:15:09.681Z,69.94
2022-12-18T08:17:36.598Z,69.60
2022-12-18T08:20:03.890Z,69.62
2022-12-18T08:22:31.100Z,69.53
2022-12-18T08:24:58.009Z,69.77
2022-12-18T08:27:31.978Z,70.28
2022-12-18T08:29:59.878Z,69.95
2022-12-18T08:32:27.697Z,69.91
2022-12-18T08:34:54.810Z,69.41
2022-12-18T08:37:21.739Z,69.15
2022-12-18T08:39:48.842Z,69.24
2022-12-18T08:42:15.795Z,68.80
2022-12-18T08:44:42.720Z,69.13
2022-12-18T08:47:09.966Z,69.35
2022-12-18T08:49:37.368Z,69.52
2022-12-18T08:52:04.640Z,70.66
2022-12-18T08:54:31.646Z,70.32
2022-12-18T08:56:58.491Z,70.82
2022-12-18T08:59:25.478Z,70.59
2022-12-18T09:01:54.891Z,70.21
2022-12-18T09:04:22.383Z,70.42
2022-12-18T09:06:49.385Z,70.80
2022-12-18T09:09:16.337Z,69.84
2022-12-18T09:11:43.228Z,69.54
2022-12-18T09:14:11.062Z,69.23
2022-12-18T09:16:38.046Z,68.81
2022-12-18T09:19:06.048Z,68.83
2022-12-18T09:21:37.258Z,69.26
2022-12-18T09:24:08.913Z,68.84
2022-12-18T09:26:36.405Z,68.59
2022-12-18T09:29:03.911Z,68.58
2022-12-18T09:31:31.029Z,68.83
2022-12-18T09:33:57.909Z,68.12
2022-12-18T09:36:24.895Z,68.22
2022-12-18T09:38:51.750Z,68.17
2022-12-18T09:41:38.145Z,68.70
2022-12-18T09:44:26.122Z,68.28
2022-12-18T09:46:53.075Z,67.99
2022-12-18T09:49:24.471Z,67.96
2022-12-18T09:51:51.345Z,67.97
2022-12-18T09:54:27.672Z,68.11
2022-12-18T09:56:55.222Z,68.17
2022-12-18T09:59:31.165Z,68.02
2022-12-18T10:01:58.300Z,68.20
2022-12-18T10:04:28.000Z,68.02
2022-12-18T10:07:25.758Z,67.91
2022-12-18T10:10:27.350Z,67.72
2022-12-18T10:13:12.556Z,68.20
2022-12-18T10:15:52.113Z,67.60
2022-12-18T10:18:22.336Z,68.09
2022-12-18T10:20:58.000Z,67.65
2022-12-18T10:23:52.253Z,67.48
2022-12-18T10:26:19.788Z,68.07
2022-12-18T10:28:48.818Z,68.00
2022-12-18T10:31:22.260Z,68.24
2022-12-18T10:33:52.539Z,67.27
2022-12-18T10:36:19.866Z,67.53
2022-12-18T10:38:46.809Z,67.37
2022-12-18T10:41:19.663Z,66.77
2022-12-18T10:43:49.039Z,66.14
2022-12-18T10:46:21.057Z,66.63
2022-12-18T10:48:47.963Z,66.26
2022-12-18T10:51:47.270Z,66.44
2022-12-18T10:54:18.640Z,66.13
2022-12-18T10:56:46.441Z,66.07
2022-12-18T10:59:16.090Z,66.21
2022-12-18T11:01:59.319Z,66.26
2022-12-18T11:04:32.191Z,66.13
2022-12-18T11:07:02.363Z,66.31
2022-12-18T11:09:32.074Z,66.19
2022-12-18T11:12:09.611Z,65.97
2022-12-18T11:14:46.883Z,66.08
2022-12-18T11:17:26.442Z,65.39
2022-12-18T11:20:23.442Z,65.51
2022-12-18T11:22:59.572Z,65.91
2022-12-18T11:25:35.651Z,65.31
2022-12-18T11:28:24.709Z,65.11
2022-12-18T11:31:29.732Z,64.88
2022-12-18T11:36:55.624Z,65.38
2022-12-18T11:39:32.864Z,64.94
2022-12-18T11:42:13.673Z,65.07
2022-12-18T11:44:55.588Z,64.59
2022-12-18T11:47:39.631Z,65.33
2022-12-18T11:50:21.748Z,65.18
2022-12-18T11:52:52.860Z,65.37
2022-12-18T11:55:35.509Z,65.98
2022-12-18T11:58:31.721Z,66.45
2022-12-18T12:01:21.883Z,66.87
2022-12-18T12:04:01.913Z,66.63
2022-12-18T12:07:01.459Z,66.79
2022-12-18T12:09:49.098Z,66.41
2022-12-18T12:12:45.184Z,66.47
2022-12-18T12:15:20.557Z,66.33
2022-12-18T12:18:11.809Z,66.22
2022-12-18T12:21:06.338Z,66.43
2022-12-18T12:24:10.201Z,66.60
2022-12-18T12:27:09.545Z,66.09
2022-12-18T12:30:01.715Z,65.68
2022-12-18T12:32:46.986Z,66.19
2022-12-18T12:35:43.377Z,67.25
2022-12-18T12:38:32.517Z,71.33
2022-12-18T12:41:05.024Z,69.22
2022-12-18T12:43:50.538Z,70.70
2022-12-18T12:46:22.872Z,70.12
2022-12-18T12:48:55.623Z,69.51
2022-12-18T12:51:27.109Z,69.49
2022-12-18T12:53:57.314Z,69.26
2022-12-18T12:56:37.567Z,69.40
2022-12-18T12:59:28.221Z,68.93
2022-12-18T13:02:26.257Z,68.66
2022-12-18T13:05:19.009Z,68.40
2022-12-18T13:07:58.525Z,67.81
2022-12-18T13:10:33.451Z,67.75
2022-12-18T13:13:03.553Z,67.06
2022-12-18T13:15:55.673Z,67.36
2022-12-18T13:18:25.900Z,67.58
2022-12-18T13:20:59.869Z,67.79
2022-12-18T13:23:36.298Z,67.88
2022-12-18T13:26:08.970Z,67.58
2022-12-18T13:28:48.054Z,67.73
2022-12-18T13:31:33.455Z,67.69
2022-12-18T13:34:28.379Z,66.96
2022-12-18T13:37:17.855Z,67.81
2022-12-18T13:39:44.905Z,67.94
2022-12-18T13:42:11.975Z,67.36
2022-12-18T13:44:41.794Z,67.65
2022-12-18T13:47:37.372Z,67.61
2022-12-18T13:50:21.210Z,67.45
2022-12-18T13:52:49.743Z,68.21
2022-12-18T13:55:20.957Z,67.96
2022-12-18T13:57:48.590Z,68.13
2022-12-18T14:00:27.917Z,68.00
2022-12-18T14:02:55.525Z,67.86
2022-12-18T14:05:24.568Z,67.51
2022-12-18T14:07:53.013Z,67.43
2022-12-18T14:10:47.593Z,67.50
2022-12-18T14:13:10.202Z,66.80
2022-12-18T14:15:41.265Z,66.52
2022-12-18T14:18:23.734Z,66.68
2022-12-18T14:20:53.671Z,66.56
2022-12-18T14:23:43.422Z,66.67
2022-12-18T14:26:24.185Z,66.84
2022-12-18T14:28:51.224Z,66.96
2022-12-18T14:31:20.175Z,67.19
2022-12-18T14:33:47.365Z,67.02
2022-12-18T14:36:19.382Z,67.73
2022-12-18T14:38:51.249Z,67.45
2022-12-18T14:41:20.045Z,67.64
2022-12-18T14:43:50.316Z,67.27
2022-12-18T14:46:30.757Z,67.28
2022-12-18T14:48:58.327Z,66.52
2022-12-18T14:51:28.181Z,66.75
2022-12-18T14:54:07.076Z,66.84
2022-12-18T14:56:37.246Z,66.73
2022-12-18T14:59:07.655Z,66.48
2022-12-18T15:01:38.782Z,67.01
2022-12-18T15:04:24.368Z,66.46
2022-12-18T15:07:12.146Z,67.23
2022-12-18T15:09:41.938Z,68.11
2022-12-18T15:12:35.523Z,67.69
2022-12-18T15:15:04.223Z,67.80
2022-12-18T15:17:31.719Z,67.56
2022-12-18T15:20:17.730Z,68.11
2022-12-18T15:22:48.454Z,68.28
2022-12-18T15:25:37.279Z,68.92
2022-12-18T15:28:16.760Z,69.39
2022-12-18T15:31:19.402Z,68.91
2022-12-18T15:34:01.572Z,68.22
2022-12-18T15:36:30.936Z,68.26
2022-12-18T15:39:06.561Z,67.86
2022-12-18T15:41:36.131Z,67.73
2022-12-18T15:44:06.911Z,68.11
2022-12-18T15:46:34.007Z,67.68
2022-12-18T15:49:02.621Z,66.68
2022-12-18T15:51:36.531Z,67.29
2022-12-18T15:54:10.071Z,67.41
2022-12-18T15:56:37.197Z,67.71
2022-12-18T15:59:13.365Z,67.14
2022-12-18T16:01:43.392Z,67.27
2022-12-18T16:04:13.439Z,66.78
2022-12-18T16:07:12.850Z,67.23
2022-12-18T16:09:29.942Z,67.46
2022-12-18T16:12:00.161Z,66.82
2022-12-18T16:14:30.432Z,66.38
2022-12-18T16:17:01.598Z,67.18
2022-12-18T16:19:29.486Z,67.78
2022-12-18T16:21:58.501Z,68.28
2022-12-18T16:24:31.219Z,67.80
2022-12-18T16:27:00.013Z,67.70
2022-12-18T16:29:30.269Z,68.38
2022-12-18T16:31:59.239Z,68.43
2022-12-18T16:34:36.036Z,67.94
2022-12-18T16:37:07.023Z,67.43
2022-12-18T16:39:38.107Z,66.84
2022-12-18T16:42:15.834Z,67.10
2022-12-18T16:44:45.741Z,66.63
2022-12-18T16:47:15.189Z,67.21
2022-12-18T16:49:43.481Z,66.98
2022-12-18T16:52:10.600Z,66.90
2022-12-18T16:54:37.928Z,66.02
2022-12-18T16:57:05.574Z,66.83
2022-12-18T16:59:34.229Z,65.80
2022-12-18T17:02:02.134Z,66.75
2022-12-18T17:04:31.122Z,66.71
2022-12-18T17:06:58.347Z,66.75
2022-12-18T17:09:28.204Z,66.23
2022-12-18T17:11:57.749Z,66.69
2022-12-18T17:14:27.148Z,67.49
2022-12-18T17:17:19.630Z,66.66
2022-12-18T17:19:45.735Z,66.98
2022-12-18T17:22:12.725Z,66.78
2022-12-18T17:24:39.898Z,67.21
2022-12-18T17:27:09.843Z,67.55
2022-12-18T17:29:39.973Z,67.89
2022-12-18T17:32:11.105Z,66.97
2022-12-18T17:34:38.361Z,67.07
2022-12-18T17:37:05.386Z,67.21
2022-12-18T17:39:32.661Z,67.86
2022-12-18T17:42:01.543Z,67.39
2022-12-18T17:44:29.720Z,67.46
2022-12-18T17:46:57.081Z,66.06
2022-12-18T17:49:26.405Z,66.35
2022-12-18T17:51:53.997Z,65.42
2022-12-18T17:54:22.188Z,65.16
2022-12-18T17:56:49.330Z,64.27
2022-12-18T17:59:17.002Z,64.36
2022-12-18T18:01:45.245Z,64.31
2022-12-18T18:04:13.942Z,64.16
2022-12-18T18:06:41.444Z,64.17
2022-12-18T18:09:16.061Z,64.27
2022-12-18T18:11:45.187Z,63.55
2022-12-18T18:14:17.507Z,63.35
2022-12-18T18:16:48.243Z,63.66
2022-12-18T18:19:22.005Z,62.89
2022-12-18T18:21:50.904Z,63.25
2022-12-18T18:24:22.687Z,63.58
2022-12-18T18:26:50.383Z,62.60
2022-12-18T18:29:26.659Z,61.51
2022-12-18T18:31:54.728Z,61.51
2022-12-18T18:34:24.561Z,60.82
2022-12-18T18:36:52.321Z,61.15
2022-12-18T18:39:19.831Z,61.48
2022-12-18T18:41:53.036Z,61.36
2022-12-18T18:44:24.815Z,62.18
2022-12-18T18:46:57.543Z,62.83
2022-12-18T18:49:26.433Z,61.97
2022-12-18T18:51:55.590Z,61.25
2022-12-18T18:54:22.756Z,61.18
2022-12-18T18:57:22.089Z,60.35
2022-12-18T18:59:38.190Z,60.33
2022-12-18T19:02:06.240Z,60.20
2022-12-18T19:04:34.295Z,60.79
2022-12-18T19:07:02.149Z,59.80
2022-12-18T19:09:29.177Z,60.34
2022-12-18T19:11:56.442Z,60.29
2022-12-18T19:14:23.810Z,59.81
2022-12-18T19:16:50.784Z,59.20
2022-12-18T19:19:21.822Z,59.72
2022-12-18T19:21:49.919Z,59.34
2022-12-18T19:24:16.965Z,60.01
2022-12-18T19:26:44.053Z,59.75
2022-12-18T19:29:12.574Z,59.51
2022-12-18T19:31:41.330Z,60.46
2022-12-18T19:34:09.214Z,60.22
2022-12-18T19:36:39.485Z,60.87
2022-12-18T19:39:12.745Z,61.11
2022-12-18T19:41:40.601Z,61.14
2022-12-18T19:44:08.833Z,62.14
2022-12-18T19:46:40.658Z,62.13
2022-12-18T19:49:11.909Z,61.64
2022-12-18T19:51:44.374Z,61.42
2022-12-18T19:54:16.424Z,60.57
2022-12-18T19:56:46.447Z,59.63
2022-12-18T19:59:15.881Z,59.70
2022-12-18T20:01:43.419Z,59.39
2022-12-18T20:04:10.931Z,60.25
2022-12-18T20:06:51.126Z,60.56
2022-12-18T20:09:19.352Z,60.27
2022-12-18T20:11:47.844Z,61.01
2022-12-18T20:14:23.163Z,60.71
2022-12-18T20:16:51.748Z,59.81
2022-12-18T20:19:19.012Z,60.06
2022-12-18T20:21:45.940Z,59.69
2022-12-18T20:24:13.098Z,60.15
2022-12-18T20:26:40.485Z,59.85
2022-12-18T20:29:07.747Z,59.46
2022-12-18T20:31:34.856Z,59.98
2022-12-18T20:34:03.709Z,59.55
2022-12-18T20:36:32.912Z,60.45
2022-12-18T20:39:19.298Z,59.80
2022-12-18T20:41:47.583Z,60.71
2022-12-18T20:44:23.246Z,60.23
2022-12-18T20:49:54.697Z,59.98
2022-12-18T20:52:28.620Z,60.59
2022-12-18T20:54:55.658Z,60.28
2022-12-18T20:57:24.660Z,59.99
2022-12-18T20:59:51.681Z,60.78
2022-12-18T21:02:18.828Z,61.39
2022-12-18T21:04:45.929Z,60.60
2022-12-18T21:07:12.843Z,61.72
2022-12-18T21:09:39.919Z,61.27
2022-12-18T21:12:14.134Z,61.12
2022-12-18T21:14:42.224Z,61.39
2022-12-18T21:17:09.272Z,60.29
2022-12-18T21:19:36.436Z,59.77
2022-12-18T21:22:03.587Z,59.72
2022-12-18T21:24:30.715Z,59.82
2022-12-18T21:27:01.011Z,58.95
2022-12-18T21:29:28.200Z,59.51
2022-12-18T21:31:55.361Z,59.35
2022-12-18T21:34:26.200Z,58.14
2022-12-18T21:36:54.189Z,58.71
2022-12-18T21:39:21.801Z,58.96
2022-12-18T21:41:50.517Z,59.11
2022-12-18T21:44:19.319Z,59.31
2022-12-18T21:46:54.871Z,58.63
2022-12-18T21:49:24.484Z,58.78
2022-12-18T21:51:54.557Z,57.42
2022-12-18T21:54:22.807Z,57.07
2022-12-18T21:56:57.671Z,56.79
2022-12-18T21:59:40.886Z,56.10
2022-12-18T22:02:12.635Z,54.95
2022-12-18T22:04:40.106Z,56.03
2022-12-18T22:07:07.459Z,56.28
2022-12-18T22:09:34.420Z,55.74
2022-12-18T22:12:02.092Z,55.62
2022-12-18T22:14:29.466Z,55.45
2022-12-18T22:16:56.616Z,55.91
2022-12-18T22:19:25.074Z,55.86
2022-12-18T22:21:52.922Z,55.23
2022-12-18T22:24:25.578Z,55.56
2022-12-18T22:26:54.019Z,56.21
2022-12-18T22:29:24.188Z,55.65
2022-12-18T22:31:51.238Z,55.65
2022-12-18T22:34:22.005Z,55.33
2022-12-18T22:36:50.543Z,55.35
2022-12-18T22:39:23.519Z,54.82
2022-12-18T22:41:51.278Z,56.08
2022-12-18T22:44:18.354Z,56.26
2022-12-18T22:46:56.154Z,55.91
2022-12-18T22:49:32.733Z,55.53
2022-12-18T22:52:01.805Z,55.11
2022-12-18T22:54:29.073Z,56.21
2022-12-18T22:56:55.913Z,56.05
2022-12-18T22:59:23.935Z,56.55
2022-12-18T23:01:54.524Z,56.75
2022-12-18T23:04:27.537Z,56.59
2022-12-18T23:06:55.885Z,57.73
2022-12-18T23:09:22.722Z,56.95
2022-12-18T23:11:49.749Z,56.90
2022-12-18T23:14:16.862Z,56.51
2022-12-18T23:16:43.799Z,57.43
2022-12-18T23:19:13.142Z,57.74
2022-12-18T23:21:40.012Z,57.79
2022-12-18T23:24:07.278Z,57.09
2022-12-18T23:26:34.659Z,57.15
2022-12-18T23:29:02.999Z,57.17
2022-12-18T23:31:35.137Z,57.06
2022-12-18T23:34:03.279Z,56.89
2022-12-18T23:36:30.711Z,57.11
2022-12-18T23:39:02.228Z,56.99
2022-12-18T23:41:31.572Z,56.91
2022-12-18T23:44:00.284Z,56.98
2022-12-18T23:46:32.793Z,57.81
2022-12-18T23:49:01.840Z,57.39
2022-12-18T23:51:29.961Z,58.09
2022-12-18T23:53:59.613Z,57.23
2022-12-18T23:56:28.520Z,58.10
2022-12-18T23:58:55.620Z,57.95
